Flight Track Log - Related Links

Times and Time Zones

All times are in EDT time to prevent confusion due to time zone crossing. See the KAP528 flight status page for this flight to view local times or setup timezone preferences in your user account.

Time Position Orientation Groundspeed Altitude Reporting Facility
EDT Latitude Longitude Course Direction KTS MPH feet Rate Location/Type
Tue 09:23:19 AM 42.3667 -71.0167 246° West 139 160 500  Level KA90
Tue 09:24:32 AM 42.3500 -71.0667 246° West 124 143 2,100 1,164 Climbing KA90
Tue 09:25:33 AM 42.3500 -71.1167 270° West 134 154 3,100 908 Climbing KA90
Tue 09:26:31 AM 42.3333 -71.1667 246° West 129 148 3,900 700 Climbing KA90
Tue 09:27:33 AM 42.3333 -71.2167 270° West 138 159 4,500 706 Climbing KA90
Tue 09:28:30 AM 42.3500 -71.2667 294° West 138 159 5,300 769 Climbing KA90
Tue 09:29:30 AM 42.3500 -71.3167 270° West 139 160 6,000 600 Climbing KA90
Tue 09:30:30 AM 42.3667 -71.3667 294° West 139 160 6,500 346 Climbing KA90
Tue 09:31:14 AM 42.3728 -71.4086 281° West 154 177 6,600  Climbing Boston Center
Tue 09:32:14 AM 42.3794 -71.4647 279° West 161 185 6,500 -50 Descending Boston Center
Tue 09:33:14 AM 42.3925 -71.5350 284° West 172 198 6,500  Level Boston Center
Tue 09:34:14 AM 42.4014 -71.5911 282° West 172 198 6,500  Level Boston Center
Tue 09:35:14 AM 42.4144 -71.6611 284° West 178 205 6,500  Level Boston Center
Tue 09:36:14 AM 42.4253 -71.7200 284° West 178 205 6,500  Level Boston Center
Tue 09:37:14 AM 42.4361 -71.7903 282° West 178 205 6,500  Level Boston Center
Tue 09:38:15 AM 42.4467 -71.8492 284° West 183 211 6,500  Level Boston Center
Tue 09:39:14 AM 42.4575 -71.9194 282° West 178 205 6,500  Level Boston Center
Tue 09:40:14 AM 42.4683 -71.9758 285° West 178 205 6,500  Level Boston Center
Tue 09:41:14 AM 42.4789 -72.0489 281° West 183 211 6,500  Level Boston Center
Tue 09:42:14 AM 42.4894 -72.1078 284° West 183 211 6,500  Level Boston Center
Tue 09:43:14 AM 42.5000 -72.1783 281° West 183 211 6,500  Level Boston Center
Tue 09:44:14 AM 42.5106 -72.2400 283° West 183 211 6,500  Level Boston Center
Tue 09:45:26 AM 42.5233 -72.3106 284° West 183 211 6,500  Level Boston Center
Tue 09:46:26 AM 42.5358 -72.3894 282° West 183 211 6,500  Level Boston Center
Tue 09:47:26 AM 42.5442 -72.4569 280° West 183 211 6,500  Level Boston Center
Tue 09:48:26 AM 42.5525 -72.5217 280° West 183 211 6,500  Level Boston Center
Tue 09:49:26 AM 42.5650 -72.5867 285° West 183 211 6,500  Level Boston Center
Tue 09:50:12 AM 42.5733 -72.6403 282° West 179 206 6,500  Level Boston Center
Tue 09:51:13 AM 42.5814 -72.7050 280° West 179 206 6,500  Level Boston Center
Tue 09:52:14 AM 42.5917 -72.7728 282° West 180 207 6,500  Level Boston Center
Tue 09:53:14 AM 42.6039 -72.8406 284° West 182 209 6,500  Level Boston Center
Tue 09:54:15 AM 42.6119 -72.9083 279° West 181 208 6,500  Level Boston Center
Tue 09:55:16 AM 42.6222 -72.9761 282° West 183 211 6,500  Level Boston Center
Tue 09:56:16 AM 42.6342 -73.0439 283° West 184 212 6,500  Level Boston Center
Tue 09:57:17 AM 42.6422 -73.1119 279° West 185 213 6,500 -197 Level Boston Center
Tue 09:58:18 AM 42.6564 -73.1825 285° West 195 224 6,100 -419 Descending Boston Center
Tue 09:59:26 AM 42.6683 -73.2647 281° West 186 214 5,600 -520 Descending Boston Center
Tue 10:00:25 AM 42.6822 -73.3411 284° West 198 228 5,000 -504 Descending Boston Center
Tue 10:01:25 AM 42.7028 -73.4064 293° West 192 221 4,600 -397 Descending Boston Center
Tue 10:02:26 AM 42.7189 -73.4631 291° West 196 226 4,200 -446 Descending Boston Center
Tue 10:03:26 AM 42.7411 -73.5283 295° West 183 211 3,700 -500 Descending Boston Center
Tue 10:04:26 AM 42.7511 -73.5881 283° West 178 205 3,200 -639 Descending Boston Center
Tue 10:05:28 AM 42.7544 -73.6589 274° West 172 198 2,400 -791 Descending Boston Center
Tue 10:06:35 AM 42.7517 -73.7267 267° West 155 178 1,500 -812 Descending Boston Center
Tue 10:07:41 AM 42.7489 -73.7747 266° West 110 127 600 -818 Descending Boston Center
Tue 10:09:00 AM 42.7333 -73.8000 270° West  Level FlightAware Approximate
Tue 10:16:00 AM 42.7491 -73.8020 270° West  Level Estimated
Tue 10:17:00 AM 42.7491 -73.8020 270° West  Level Estimated
Tue 10:18:00 AM 42.7491 -73.8020 270° West  Level Estimated
Tue 10:19:00 AM 42.7491 -73.8020 270° West  Level Estimated

Login

Don't have an account? Register now (free) for customized features, flight alerts, and more!